Rogers, AR (72756)

8:23 AM CDT on March 28, 2015 (GMT -0500)
Little Flock | | Change Station
CLOSE
Current Station
Personal Weather Station
Location: Little Flock, AR
Elevation: 1293 ft
Nearby Weather Stations

Elev 1293 ft 36.39 °N, 94.14 °W | Updated 3 minutes ago

Rain
Rain
40.1 °F
Feels Like 40 °F
N
0.0
Wind Variable Wind from ESE
Gusts 0.0 mph

Today
High -- | Low -- °F
--% Chance of Precip.
Yesterday
High -- | Low -- °F
Precip. -- in
7:08 AM 7:34 PM
Waxing Gibbous, 62% visible
Pressure 30.16 in
Visibility 10.0 miles
Clouds Mostly Cloudy 7500 ft
Overcast 9500 ft
Windchill 40 °F
Dew Point 35 °F
Humidity 81%
Rainfall 0.00 in
Snow Depth Not available.
UV 0 out of 12
Pollen 10.10 out of 12
Air Quality Not available.
Flu Activity Not available.
METAR KROG 281257Z AUTO VRB03KT 10SM -RA BKN075 OVC095 04/M01 A3015 RMK AO2 SLP213 P0000 T00441006 TSNO

More Conditions Fewer Conditions

Pressure 30.16 in
Visibility 10.0 miles
Clouds Mostly Cloudy 7500 ft
Overcast 9500 ft
Windchill 40 °F
Dew Point 35 °F
Humidity 81%
Rainfall 0.00 in
Snow Depth Not available.
UV 0 out of 12
Pollen 10.10 out of 12
Air Quality Not available.
Flu Activity Not available.
METAR KROG 281257Z AUTO VRB03KT 10SM -RA BKN075 OVC095 04/M01 A3015 RMK AO2 SLP213 P0000 T00441006 TSNO

More Conditions Fewer Conditions

Nowcast | as of 7:57 am CDT on March 28, 2015

At 7:56 am...Doppler radars indicated scattered light showers across portions of eastern Oklahoma and northwest Arkansas. This activity continues to quickly move to the southeast at around 40 mph. Through 10:00 am...light showers or occasional sprinkles will continue across eastern Oklahoma and northwest Arkansas. A few hundredths of an inch of rainfall may occur with the heaviest showers. The bulk of the measurable rain will fall along and to the east of a Pryor to Waldron line.

×

10-Day Weather Forecast

Almanac

Astronomy

Mar. 28, 2015 Rise Set
Actual Time
Civil Twilight
Nautical Twilight
Astronomical Twilight
Moon
Length of Visible Light
Length of Day
Tomorrow will be .
, % of the Moon is Illuminated

Today's Extremes

State Highs State Lows

Community

WunderPhotos

Upload Photos

1,808,972 photos uploaded!

WunderBlogs® & News

Nearby

Air Quality

  Air Quality AQ Index Pollutant
Not available.

Snow Depth

Station Depth Elevation

Earthquake Activity

City Distance Mag. Time & Date
Minimum magnitude displayed is 2.5.

Coastal Water Temperatures

Place Temperature

Stations

Nearby Weather Stations

Station Location Temp. Windchill Dew Point Humidity Wind Precip. Elev Updated Type